createdAt,value
2018-07-02T00:02:32.245Z,13.50
2018-07-02T00:05:06.888Z,13.50
2018-07-02T00:07:44.662Z,13.50
2018-07-02T00:10:13.023Z,13.50
2018-07-02T00:12:41.326Z,13.40
2018-07-02T00:15:17.073Z,13.40
2018-07-02T00:17:45.369Z,13.40
2018-07-02T00:20:17.808Z,13.40
2018-07-02T00:22:51.835Z,13.40
2018-07-02T00:25:31.481Z,13.30
2018-07-02T00:28:06.164Z,13.30
2018-07-02T00:30:38.635Z,13.30
2018-07-02T00:33:06.971Z,13.30
2018-07-02T00:35:44.673Z,13.30
2018-07-02T00:38:12.958Z,13.30
2018-07-02T00:40:47.904Z,13.20
2018-07-02T00:43:24.125Z,13.20
2018-07-02T00:45:52.471Z,13.20
2018-07-02T00:48:20.778Z,13.20
2018-07-02T00:50:55.815Z,13.20
2018-07-02T00:53:34.316Z,13.10
2018-07-02T00:56:09.716Z,13.10
2018-07-02T00:58:48.176Z,13.10
2018-07-02T01:01:22.049Z,13.00
2018-07-02T01:03:50.357Z,13.00
2018-07-02T01:06:24.349Z,12.90
2018-07-02T01:08:53.128Z,12.80
2018-07-02T01:11:25.703Z,12.80
2018-07-02T01:14:08.968Z,12.70
2018-07-02T01:16:43.474Z,12.70
2018-07-02T01:19:19.713Z,12.60
2018-07-02T01:21:52.176Z,12.60
2018-07-02T01:24:27.011Z,12.50
2018-07-02T01:26:58.094Z,12.50
2018-07-02T01:29:38.372Z,12.50
2018-07-02T01:32:20.167Z,12.40
2018-07-02T01:34:52.692Z,12.40
2018-07-02T01:37:20.983Z,12.40
2018-07-02T01:39:56.901Z,12.30
2018-07-02T01:42:25.224Z,12.20
2018-07-02T01:44:53.491Z,12.20
2018-07-02T01:47:34.435Z,12.20
2018-07-02T01:50:19.714Z,12.10
2018-07-02T01:52:50.243Z,12.10
2018-07-02T01:55:20.938Z,12.00
2018-07-02T01:57:57.896Z,12.00
2018-07-02T02:00:26.198Z,12.00
2018-07-02T02:02:57.319Z,11.90
2018-07-02T02:05:29.067Z,11.90
2018-07-02T02:08:04.099Z,11.80
2018-07-02T02:10:36.215Z,11.80
2018-07-02T02:13:04.640Z,11.70
2018-07-02T02:15:33.075Z,11.70
2018-07-02T02:18:01.500Z,11.70
2018-07-02T02:20:39.365Z,11.60
2018-07-02T02:23:07.820Z,11.60
2018-07-02T02:25:36.489Z,11.50
2018-07-02T02:28:08.936Z,11.50
2018-07-02T02:30:41.736Z,11.50
2018-07-02T02:33:16.634Z,11.40
2018-07-02T02:35:45.283Z,11.30
2018-07-02T02:38:15.432Z,11.30
2018-07-02T02:40:43.686Z,11.30
2018-07-02T02:43:20.613Z,11.20
2018-07-02T02:45:51.889Z,11.10
2018-07-02T02:48:20.150Z,11.00
2018-07-02T02:50:52.930Z,10.90
2018-07-02T02:53:21.206Z,10.90
2018-07-02T02:55:49.459Z,10.80
2018-07-02T02:58:24.933Z,10.70
2018-07-02T03:00:59.741Z,10.60
2018-07-02T03:03:28.021Z,10.50
2018-07-02T03:05:59.101Z,10.50
2018-07-02T03:08:29.451Z,10.50
2018-07-02T03:11:01.982Z,10.50
2018-07-02T03:13:34.590Z,10.50
2018-07-02T03:16:11.791Z,10.50
2018-07-02T03:18:44.347Z,10.50
2018-07-02T03:21:16.840Z,10.40
2018-07-02T03:23:49.149Z,10.40
2018-07-02T03:26:38.190Z,10.40
2018-07-02T03:29:06.525Z,10.30
2018-07-02T03:31:34.793Z,10.30
2018-07-02T03:34:08.263Z,10.30
2018-07-02T03:36:42.848Z,10.30
2018-07-02T03:39:16.039Z,10.30
2018-07-02T03:44:12.440Z,10.20
2018-07-02T03:46:40.828Z,10.30
2018-07-02T03:49:09.089Z,10.30
2018-07-02T03:51:40.168Z,10.20
2018-07-02T03:54:10.470Z,10.20
2018-07-02T03:56:38.854Z,10.30
2018-07-02T03:59:07.141Z,10.30
2018-07-02T04:01:45.521Z,10.30
2018-07-02T04:04:16.771Z,10.30
2018-07-02T04:06:49.151Z,10.40
2018-07-02T04:09:17.761Z,10.40
2018-07-02T04:11:53.853Z,10.50
2018-07-02T04:14:22.640Z,10.60
2018-07-02T04:16:54.128Z,10.70
2018-07-02T04:19:27.399Z,10.70
2018-07-02T04:21:58.282Z,10.80
2018-07-02T04:24:35.021Z,10.90
2018-07-02T04:27:03.768Z,11.00
2018-07-02T04:29:35.139Z,11.20
2018-07-02T04:32:03.724Z,11.40
2018-07-02T04:34:34.084Z,11.60
2018-07-02T04:37:02.448Z,11.80
2018-07-02T04:39:31.057Z,12.30
2018-07-02T04:41:59.408Z,12.70
2018-07-02T04:44:27.686Z,13.00
2018-07-02T04:47:00.451Z,13.30
2018-07-02T04:49:28.866Z,13.50
2018-07-02T04:51:57.137Z,13.70
2018-07-02T04:54:31.889Z,14.00
2018-07-02T04:57:00.236Z,14.20
2018-07-02T04:59:33.647Z,14.30
2018-07-02T05:02:06.963Z,14.30
2018-07-02T05:04:40.429Z,14.40
2018-07-02T05:07:15.167Z,14.40
2018-07-02T05:09:43.446Z,14.40
2018-07-02T05:12:15.852Z,14.40
2018-07-02T05:14:50.503Z,14.50
2018-07-02T05:17:18.791Z,14.50
2018-07-02T05:19:53.542Z,14.50
2018-07-02T05:22:21.814Z,14.50
2018-07-02T05:24:52.754Z,14.60
2018-07-02T05:27:23.339Z,14.70
2018-07-02T05:29:54.248Z,15.00
2018-07-02T05:32:28.954Z,15.40
2018-07-02T05:34:57.305Z,15.90
2018-07-02T05:37:25.684Z,16.50
2018-07-02T05:39:57.036Z,17.00
2018-07-02T05:42:32.598Z,17.40
2018-07-02T05:45:05.871Z,17.70
2018-07-02T05:47:43.593Z,18.30
2018-07-02T05:50:11.869Z,18.60
2018-07-02T05:55:19.890Z,19.40
2018-07-02T05:57:52.370Z,19.50
2018-07-02T06:00:25.783Z,19.80
2018-07-02T06:02:59.366Z,20.10
2018-07-02T06:05:27.607Z,20.10
2018-07-02T06:08:07.463Z,20.10
2018-07-02T06:10:35.827Z,20.10
2018-07-02T06:13:08.568Z,20.00
2018-07-02T06:15:38.868Z,20.20
2018-07-02T06:18:07.131Z,20.10
2018-07-02T06:20:35.424Z,20.20
2018-07-02T06:23:10.124Z,20.30
2018-07-02T06:25:38.393Z,20.30
2018-07-02T06:28:11.661Z,20.60
2018-07-02T06:30:42.831Z,20.90
2018-07-02T06:33:13.702Z,20.90
2018-07-02T06:35:48.380Z,21.00
2018-07-02T06:38:16.783Z,20.70
2018-07-02T06:40:52.012Z,20.80
2018-07-02T06:43:26.944Z,21.00
2018-07-02T06:45:55.290Z,21.40
2018-07-02T06:48:23.621Z,21.70
2018-07-02T06:50:58.360Z,21.90
2018-07-02T06:53:26.616Z,21.80
2018-07-02T06:55:58.082Z,21.70
2018-07-02T06:58:28.217Z,21.90
2018-07-02T07:01:01.425Z,22.10
2018-07-02T07:03:31.891Z,22.20
2018-07-02T07:06:00.815Z,22.30
2018-07-02T07:08:32.006Z,22.80
2018-07-02T07:11:00.469Z,23.00
2018-07-02T07:13:33.060Z,23.10
2018-07-02T07:16:06.732Z,23.20
2018-07-02T07:18:49.512Z,23.40
2018-07-02T07:21:18.128Z,23.30
2018-07-02T07:23:46.875Z,23.40
2018-07-02T07:26:21.127Z,23.40
2018-07-02T07:28:51.439Z,23.30
2018-07-02T07:31:19.700Z,23.20
2018-07-02T07:33:58.101Z,23.00
2018-07-02T07:36:29.626Z,22.90
2018-07-02T07:38:58.162Z,22.70
2018-07-02T07:41:26.390Z,22.70
2018-07-02T07:43:57.705Z,22.60
2018-07-02T07:46:30.946Z,22.90
2018-07-02T07:49:01.502Z,23.30
2018-07-02T07:51:43.827Z,23.10
2018-07-02T07:54:14.472Z,23.40
2018-07-02T07:56:57.411Z,23.90
2018-07-02T07:59:25.655Z,24.20
2018-07-02T08:01:56.682Z,23.90
2018-07-02T08:04:34.907Z,23.60
2018-07-02T08:07:03.659Z,23.50
2018-07-02T08:09:34.032Z,23.70
2018-07-02T08:12:02.424Z,23.80
2018-07-02T08:14:30.649Z,24.20
2018-07-02T08:16:59.004Z,24.60
2018-07-02T08:19:31.675Z,24.70
2018-07-02T08:22:00.066Z,24.40
2018-07-02T08:24:28.370Z,24.40
2018-07-02T08:27:05.065Z,24.60
2018-07-02T08:29:33.328Z,24.50
2018-07-02T08:32:06.489Z,24.50
2018-07-02T08:34:35.154Z,24.60
2018-07-02T08:37:08.383Z,25.00
2018-07-02T08:39:48.234Z,25.10
2018-07-02T08:42:21.418Z,25.10
2018-07-02T08:44:59.072Z,25.20
2018-07-02T08:47:32.635Z,25.20
2018-07-02T08:50:01.035Z,25.00
2018-07-02T08:52:32.148Z,25.10
2018-07-02T08:55:04.484Z,25.30
2018-07-02T08:57:44.949Z,25.40
2018-07-02T09:00:16.287Z,25.50
2018-07-02T09:02:46.854Z,25.20
2018-07-02T09:08:00.267Z,25.30
2018-07-02T09:10:28.810Z,25.20
2018-07-02T09:12:57.136Z,25.10
2018-07-02T09:15:28.241Z,25.30
2018-07-02T09:17:59.394Z,25.60
2018-07-02T09:20:27.918Z,25.70
2018-07-02T09:22:56.266Z,26.10
2018-07-02T09:25:24.560Z,26.00
2018-07-02T09:28:00.655Z,26.20
2018-07-02T09:30:41.592Z,25.90
2018-07-02T09:33:09.858Z,25.70
2018-07-02T09:35:43.282Z,26.00
2018-07-02T09:38:17.755Z,25.90
2018-07-02T09:40:48.773Z,26.00
2018-07-02T09:43:19.036Z,26.20
2018-07-02T09:45:47.443Z,26.10
2018-07-02T09:48:15.791Z,25.80
2018-07-02T09:50:48.211Z,25.70
2018-07-02T09:53:19.081Z,25.90
2018-07-02T09:55:47.512Z,25.80
2018-07-02T09:58:15.962Z,26.10
2018-07-02T10:00:44.428Z,26.10
2018-07-02T10:03:12.821Z,26.20
2018-07-02T10:05:41.126Z,26.40
2018-07-02T10:08:12.345Z,26.30
2018-07-02T10:10:45.396Z,26.50
2018-07-02T10:13:13.702Z,26.40
2018-07-02T10:15:42.138Z,26.40
2018-07-02T10:18:13.126Z,26.10
2018-07-02T10:20:44.354Z,26.10
2018-07-02T10:23:12.583Z,26.30
2018-07-02T10:25:43.791Z,26.30
2018-07-02T10:28:21.583Z,26.20
2018-07-02T10:30:49.927Z,26.20
2018-07-02T10:33:22.458Z,26.40
2018-07-02T10:35:58.364Z,26.40
2018-07-02T10:38:28.542Z,26.00
2018-07-02T10:40:56.790Z,26.00
2018-07-02T10:43:30.060Z,26.20
2018-07-02T10:46:10.455Z,26.30
2018-07-02T10:48:44.978Z,26.20
2018-07-02T10:51:18.239Z,26.40
2018-07-02T10:53:48.963Z,26.40
2018-07-02T10:56:23.631Z,26.70
2018-07-02T10:58:52.554Z,27.00
2018-07-02T11:01:25.825Z,26.70
2018-07-02T11:03:57.079Z,26.70
2018-07-02T11:06:25.428Z,26.80
2018-07-02T11:08:53.806Z,27.30
2018-07-02T11:11:24.054Z,27.30
2018-07-02T11:13:52.494Z,27.10
2018-07-02T11:16:24.949Z,27.00
2018-07-02T11:18:53.134Z,26.90
2018-07-02T11:21:21.649Z,26.90
2018-07-02T11:23:50.098Z,26.60
2018-07-02T11:26:18.525Z,26.90
2018-07-02T11:28:47.137Z,27.00
2018-07-02T11:31:15.424Z,27.00
2018-07-02T11:33:43.999Z,27.20
2018-07-02T11:36:12.637Z,27.00
2018-07-02T11:38:41.013Z,27.00
2018-07-02T11:41:09.326Z,27.10
2018-07-02T11:43:42.674Z,27.30
2018-07-02T11:46:22.725Z,27.20
2018-07-02T11:48:59.771Z,27.20
2018-07-02T11:51:28.425Z,27.10
2018-07-02T11:53:56.855Z,27.40
2018-07-02T11:56:25.023Z,27.30
2018-07-02T11:59:04.941Z,27.20
2018-07-02T12:01:35.157Z,27.20
2018-07-02T12:04:03.543Z,27.20
2018-07-02T12:06:31.767Z,27.00
2018-07-02T12:09:04.172Z,26.90
2018-07-02T12:11:46.988Z,27.20
2018-07-02T12:14:15.258Z,27.30
2018-07-02T12:16:46.285Z,27.20
2018-07-02T12:19:18.793Z,27.10
2018-07-02T12:21:51.085Z,27.10
2018-07-02T12:24:19.603Z,27.10
2018-07-02T12:26:49.999Z,27.20
2018-07-02T12:29:18.213Z,27.20
2018-07-02T12:31:46.502Z,27.10
2018-07-02T12:34:23.578Z,27.20
2018-07-02T12:37:03.539Z,27.20
2018-07-02T12:39:31.791Z,27.40
2018-07-02T12:42:03.062Z,27.30
2018-07-02T12:44:37.638Z,27.30
2018-07-02T12:47:12.392Z,27.20
2018-07-02T12:49:40.732Z,27.30
2018-07-02T12:52:22.583Z,27.30
2018-07-02T12:54:52.902Z,27.20
2018-07-02T12:57:21.139Z,27.10
2018-07-02T12:59:55.332Z,27.00
2018-07-02T13:02:28.051Z,27.20
2018-07-02T13:05:00.663Z,26.90
2018-07-02T13:07:28.988Z,26.90
2018-07-02T13:10:00.149Z,27.10
2018-07-02T13:12:31.069Z,27.10
2018-07-02T13:14:59.383Z,27.10
2018-07-02T13:17:36.343Z,27.40
2018-07-02T13:20:09.310Z,27.60
2018-07-02T13:22:40.375Z,27.60
2018-07-02T13:25:11.603Z,27.40
2018-07-02T13:27:42.187Z,27.10
2018-07-02T13:30:10.669Z,27.40
2018-07-02T13:37:40.701Z,27.60
2018-07-02T13:40:18.652Z,27.60
2018-07-02T13:42:49.922Z,27.70
2018-07-02T13:45:18.411Z,27.70
2018-07-02T13:47:46.949Z,27.70
2018-07-02T13:50:17.344Z,27.80
2018-07-02T13:52:45.677Z,27.90
2018-07-02T13:55:13.990Z,27.80
2018-07-02T13:57:48.775Z,27.80
2018-07-02T14:00:17.188Z,27.80
2018-07-02T14:02:45.436Z,28.00
2018-07-02T14:05:15.624Z,28.00
2018-07-02T14:07:47.309Z,27.90
2018-07-02T14:10:25.136Z,28.00
2018-07-02T14:12:53.437Z,28.10
2018-07-02T14:15:22.490Z,28.00
2018-07-02T14:17:59.411Z,27.90
2018-07-02T14:20:27.741Z,27.80
2018-07-02T14:23:01.168Z,27.60
2018-07-02T14:25:35.889Z,27.40
2018-07-02T14:28:04.142Z,27.50
2018-07-02T14:30:40.477Z,27.40
2018-07-02T14:33:16.420Z,27.50
2018-07-02T14:35:44.861Z,27.40
2018-07-02T14:38:13.556Z,27.20
2018-07-02T14:40:53.395Z,27.30
2018-07-02T14:43:24.527Z,27.10
2018-07-02T14:45:56.006Z,27.10
2018-07-02T14:48:30.399Z,27.20
2018-07-02T14:50:59.682Z,27.30
2018-07-02T14:53:27.971Z,27.20
2018-07-02T14:55:56.231Z,27.30
2018-07-02T14:58:28.998Z,27.30
2018-07-02T15:00:57.306Z,27.20
2018-07-02T15:03:30.386Z,27.20
2018-07-02T15:06:02.964Z,27.20
2018-07-02T15:08:35.430Z,27.30
2018-07-02T15:11:10.036Z,27.20
2018-07-02T15:13:42.575Z,27.20
2018-07-02T15:16:12.843Z,27.20
2018-07-02T15:18:47.496Z,27.20
2018-07-02T15:21:15.766Z,27.00
2018-07-02T15:23:51.911Z,26.90
2018-07-02T15:26:24.446Z,26.90
2018-07-02T15:28:54.714Z,27.00
2018-07-02T15:31:23.086Z,27.00
2018-07-02T15:33:51.594Z,27.00
2018-07-02T15:36:19.790Z,27.00
2018-07-02T15:38:52.190Z,27.00
2018-07-02T15:41:20.420Z,27.20
2018-07-02T15:43:52.870Z,27.20
2018-07-02T15:46:26.487Z,27.30
2018-07-02T15:49:01.113Z,27.30
2018-07-02T15:51:32.531Z,27.20
2018-07-02T15:54:07.224Z,27.20
2018-07-02T15:56:35.938Z,27.20
2018-07-02T15:59:04.535Z,27.10
2018-07-02T16:01:34.761Z,27.00
2018-07-02T16:04:03.082Z,26.90
2018-07-02T16:06:31.416Z,26.90
2018-07-02T16:09:02.520Z,26.80
2018-07-02T16:11:35.970Z,26.90
2018-07-02T16:14:09.970Z,26.80
2018-07-02T16:16:40.162Z,26.90
2018-07-02T16:19:10.295Z,27.00
2018-07-02T16:21:38.802Z,27.10
2018-07-02T16:24:10.425Z,27.20
2018-07-02T16:26:41.809Z,27.00
2018-07-02T16:29:15.946Z,27.00
2018-07-02T16:31:44.194Z,26.80
2018-07-02T16:34:27.934Z,26.70
2018-07-02T16:36:56.418Z,26.70
2018-07-02T16:39:24.806Z,26.60
2018-07-02T16:41:53.085Z,26.60
2018-07-02T16:44:25.486Z,26.50
2018-07-02T16:47:03.359Z,26.30
2018-07-02T16:49:33.839Z,26.20
2018-07-02T16:52:02.487Z,26.10
2018-07-02T16:54:33.703Z,26.00
2018-07-02T16:57:02.091Z,26.10
2018-07-02T16:59:30.337Z,25.90
2018-07-02T17:02:03.476Z,25.90
2018-07-02T17:04:34.872Z,25.90
2018-07-02T17:07:08.469Z,25.90
2018-07-02T17:09:50.757Z,25.90
2018-07-02T17:12:23.256Z,25.70
2018-07-02T17:14:56.666Z,25.70
2018-07-02T17:17:25.154Z,25.50
2018-07-02T17:19:56.936Z,25.50
2018-07-02T17:22:33.869Z,25.40
2018-07-02T17:25:02.412Z,25.40
2018-07-02T17:27:32.990Z,25.30
2018-07-02T17:30:12.130Z,25.20
2018-07-02T17:32:40.689Z,25.20
2018-07-02T17:35:11.263Z,25.20
2018-07-02T17:37:42.593Z,25.20
2018-07-02T17:42:43.229Z,25.10
2018-07-02T17:45:15.626Z,25.10
2018-07-02T17:47:53.235Z,25.00
2018-07-02T17:50:21.501Z,25.00
2018-07-02T17:52:56.140Z,24.90
2018-07-02T17:55:24.370Z,24.80
2018-07-02T17:57:55.576Z,24.80
2018-07-02T18:00:27.363Z,24.70
2018-07-02T18:05:37.719Z,24.60
2018-07-02T18:08:06.585Z,24.50
2018-07-02T18:10:36.888Z,24.50
2018-07-02T18:13:08.587Z,24.50
2018-07-02T18:15:46.542Z,24.50
2018-07-02T18:18:17.488Z,24.40
2018-07-02T18:20:50.646Z,24.40
2018-07-02T18:23:23.127Z,24.30
2018-07-02T18:26:04.110Z,24.30
2018-07-02T18:28:32.386Z,24.30
2018-07-02T18:31:09.862Z,24.20
2018-07-02T18:33:42.497Z,24.10
2018-07-02T18:36:10.832Z,24.10
2018-07-02T18:38:43.574Z,23.90
2018-07-02T18:41:11.891Z,23.80
2018-07-02T18:43:40.474Z,23.80
2018-07-02T18:46:08.888Z,23.80
2018-07-02T18:48:37.251Z,23.70
2018-07-02T18:51:09.712Z,23.60
2018-07-02T18:53:40.752Z,23.50
2018-07-02T18:56:12.123Z,23.50
2018-07-02T18:58:43.379Z,23.40
2018-07-02T19:01:11.612Z,23.40
2018-07-02T19:03:46.144Z,23.30
2018-07-02T19:06:14.616Z,23.20
2018-07-02T19:08:47.183Z,23.00
2018-07-02T19:11:15.468Z,22.90
2018-07-02T19:13:50.187Z,22.80
2018-07-02T19:16:18.522Z,22.70
2018-07-02T19:18:49.513Z,22.60
2018-07-02T19:21:19.967Z,22.50
2018-07-02T19:24:02.140Z,22.30
2018-07-02T19:26:30.632Z,22.10
2018-07-02T19:28:59.064Z,22.00
2018-07-02T19:31:27.289Z,21.80
2018-07-02T19:34:01.460Z,21.60
2018-07-02T19:36:36.091Z,21.50
2018-07-02T19:39:09.084Z,21.30
2018-07-02T19:41:37.381Z,21.10
2018-07-02T19:44:05.837Z,20.90
2018-07-02T19:46:34.016Z,20.70
2018-07-02T19:49:08.872Z,20.60
2018-07-02T19:51:37.111Z,20.40
2018-07-02T19:54:09.761Z,20.20
2018-07-02T19:56:38.131Z,20.10
2018-07-02T19:59:06.471Z,19.90
2018-07-02T20:01:38.833Z,19.70
2018-07-02T20:04:10.126Z,19.60
2018-07-02T20:06:41.565Z,19.50
2018-07-02T20:09:16.391Z,19.30
2018-07-02T20:11:51.190Z,19.20
2018-07-02T20:14:19.929Z,19.00
2018-07-02T20:16:48.235Z,18.90
2018-07-02T20:19:16.902Z,18.70
2018-07-02T20:21:50.882Z,18.60
2018-07-02T20:24:19.130Z,18.50
2018-07-02T20:26:54.170Z,18.40
2018-07-02T20:29:24.410Z,18.30
2018-07-02T20:31:52.663Z,18.20
2018-07-02T20:34:25.244Z,18.10
2018-07-02T20:36:53.525Z,18.00
2018-07-02T20:39:25.247Z,17.90
2018-07-02T20:41:53.515Z,17.80
2018-07-02T20:44:28.247Z,17.60
2018-07-02T20:46:56.526Z,17.50
2018-07-02T20:49:34.600Z,17.40
2018-07-02T20:52:08.770Z,17.30
2018-07-02T20:54:37.678Z,17.20
2018-07-02T20:57:12.782Z,17.10
2018-07-02T20:59:41.213Z,17.10
2018-07-02T21:02:09.661Z,17.00
2018-07-02T21:04:38.109Z,17.00
2018-07-02T21:07:06.659Z,16.90
2018-07-02T21:09:34.884Z,16.80
2018-07-02T21:12:05.944Z,16.80
2018-07-02T21:14:37.387Z,16.70
2018-07-02T21:17:05.879Z,16.70
2018-07-02T21:19:37.218Z,16.70
2018-07-02T21:22:13.481Z,16.60
2018-07-02T21:24:41.740Z,16.60
2018-07-02T21:27:10.058Z,16.50
2018-07-02T21:29:44.622Z,16.50
2018-07-02T21:32:18.262Z,16.50
2018-07-02T21:34:46.531Z,16.60
2018-07-02T21:37:21.255Z,16.60
2018-07-02T21:39:49.534Z,16.60
2018-07-02T21:42:22.067Z,16.60
2018-07-02T21:44:50.296Z,16.60
2018-07-02T21:47:29.373Z,16.60
2018-07-02T21:50:00.997Z,16.70
2018-07-02T21:52:32.015Z,16.70
2018-07-02T21:55:00.391Z,16.60
2018-07-02T22:00:08.062Z,16.50
2018-07-02T22:02:43.575Z,16.40
2018-07-02T22:05:16.887Z,16.40
2018-07-02T22:07:52.410Z,16.30
2018-07-02T22:10:27.835Z,16.20
2018-07-02T22:13:02.660Z,16.10
2018-07-02T22:15:31.038Z,16.00
2018-07-02T22:17:59.635Z,15.90
2018-07-02T22:20:28.148Z,15.80
2018-07-02T22:22:56.466Z,15.70
2018-07-02T22:25:24.690Z,15.60
2018-07-02T22:27:59.458Z,15.60
2018-07-02T22:30:27.863Z,15.50
2018-07-02T22:32:56.392Z,15.40
2018-07-02T22:35:24.602Z,15.40
2018-07-02T22:37:58.291Z,15.30
2018-07-02T22:40:30.708Z,15.30
2018-07-02T22:45:42.206Z,15.20
2018-07-02T22:48:22.763Z,15.10
2018-07-02T22:50:57.489Z,15.10
2018-07-02T22:53:25.763Z,15.00
2018-07-02T22:55:58.798Z,14.90
2018-07-02T22:58:27.116Z,14.80
2018-07-02T23:00:56.038Z,14.70
2018-07-02T23:03:28.615Z,14.70
2018-07-02T23:06:03.222Z,14.60
2018-07-02T23:08:34.437Z,14.50
2018-07-02T23:11:05.506Z,14.50
2018-07-02T23:13:33.817Z,14.40
2018-07-02T23:16:05.002Z,14.40
2018-07-02T23:18:45.150Z,14.30
2018-07-02T23:21:13.698Z,14.30
2018-07-02T23:23:55.971Z,14.20
2018-07-02T23:26:28.483Z,14.20
2018-07-02T23:29:02.627Z,14.10
2018-07-02T23:31:30.845Z,14.00
2018-07-02T23:34:03.458Z,14.00
2018-07-02T23:36:31.683Z,13.90
2018-07-02T23:39:04.798Z,13.80
2018-07-02T23:41:43.572Z,13.80
2018-07-02T23:44:18.286Z,13.70
2018-07-02T23:46:46.579Z,13.60
2018-07-02T23:49:19.897Z,13.60
2018-07-02T23:51:56.853Z,13.50
2018-07-02T23:56:57.493Z,13.40
